createdAt,value
2019-03-30T00:00:41.682Z,19.30
2019-03-30T00:01:41.582Z,18.80
2019-03-30T00:02:41.480Z,18.60
2019-03-30T00:03:41.381Z,19.70
2019-03-30T00:04:41.300Z,18.60
2019-03-30T00:05:41.183Z,18.80
2019-03-30T00:06:41.086Z,18.30
2019-03-30T00:07:40.987Z,18.80
2019-03-30T00:08:40.886Z,18.30
2019-03-30T00:09:40.804Z,18.70
2019-03-30T00:10:40.687Z,18.00
2019-03-30T00:11:40.590Z,18.50
2019-03-30T00:12:40.490Z,19.40
2019-03-30T00:13:40.392Z,18.00
2019-03-30T00:14:40.306Z,19.30
2019-03-30T00:15:40.192Z,18.80
2019-03-30T00:16:40.092Z,19.50
2019-03-30T00:17:39.991Z,17.00
2019-03-30T00:18:41.507Z,18.90
2019-03-30T00:19:39.808Z,18.50
2019-03-30T00:20:39.695Z,18.30
2019-03-30T00:21:39.596Z,20.00
2019-03-30T00:22:39.497Z,19.50
2019-03-30T00:23:39.398Z,19.50
2019-03-30T00:24:39.316Z,18.00
2019-03-30T00:25:39.199Z,18.60
2019-03-30T00:26:39.100Z,18.00
2019-03-30T00:27:39.002Z,19.20
2019-03-30T00:28:38.903Z,18.30
2019-03-30T00:29:38.827Z,18.80
2019-03-30T00:30:38.703Z,17.80
2019-03-30T00:31:38.602Z,19.00
2019-03-30T00:32:38.501Z,17.10
2019-03-30T00:33:38.401Z,18.80
2019-03-30T00:34:38.321Z,18.20
2019-03-30T00:35:38.205Z,18.40
2019-03-30T00:36:38.961Z,18.20
2019-03-30T00:37:38.003Z,19.70
2019-03-30T00:38:37.908Z,18.40
2019-03-30T00:39:37.821Z,19.00
2019-03-30T00:40:37.708Z,18.00
2019-03-30T00:41:37.607Z,17.10
2019-03-30T00:42:37.610Z,18.50
2019-03-30T00:43:37.411Z,18.00
2019-03-30T00:44:37.325Z,17.50
2019-03-30T00:45:37.207Z,18.50
2019-03-30T00:46:37.109Z,17.40
2019-03-30T00:47:37.009Z,18.10
2019-03-30T00:48:36.909Z,18.60
2019-03-30T00:49:48.532Z,18.10
2019-03-30T00:50:36.709Z,17.30
2019-03-30T00:51:36.612Z,17.80
2019-03-30T00:52:36.515Z,18.30
2019-03-30T00:53:36.410Z,18.30
2019-03-30T00:54:36.328Z,18.20
2019-03-30T00:55:36.213Z,17.90
2019-03-30T00:56:36.113Z,18.30
2019-03-30T00:57:36.014Z,17.80
2019-03-30T00:58:35.913Z,17.60
2019-03-30T00:59:35.831Z,17.50
2019-03-30T01:00:35.717Z,18.00
2019-03-30T01:01:35.711Z,16.70
2019-03-30T01:02:35.520Z,17.40
2019-03-30T01:03:35.424Z,17.00
2019-03-30T01:04:35.333Z,18.60
2019-03-30T01:05:35.218Z,16.70
2019-03-30T01:06:35.120Z,18.20
2019-03-30T01:07:35.025Z,17.20
2019-03-30T01:08:34.921Z,16.80
2019-03-30T01:09:34.835Z,17.10
2019-03-30T01:10:34.754Z,17.10
2019-03-30T01:11:34.621Z,17.80
2019-03-30T01:12:34.523Z,16.90
2019-03-30T01:13:34.420Z,17.20
2019-03-30T01:14:34.325Z,16.80
2019-03-30T01:15:34.243Z,16.70
2019-03-30T01:16:34.127Z,17.30
2019-03-30T01:17:34.138Z,16.50
2019-03-30T01:18:33.924Z,17.50
2019-03-30T01:19:33.841Z,16.20
2019-03-30T01:20:33.725Z,16.80
2019-03-30T01:21:33.625Z,16.50
2019-03-30T01:22:33.528Z,17.00
2019-03-30T01:23:33.427Z,17.10
2019-03-30T01:24:33.429Z,16.10
2019-03-30T01:25:33.245Z,17.00
2019-03-30T01:26:33.167Z,18.10
2019-03-30T01:27:33.029Z,17.70
2019-03-30T01:28:32.931Z,17.00
2019-03-30T01:29:32.832Z,16.80
2019-03-30T01:30:32.747Z,17.30
2019-03-30T01:31:32.732Z,17.00
2019-03-30T01:32:35.071Z,17.70
2019-03-30T01:33:32.432Z,17.60
2019-03-30T01:34:32.334Z,17.70
2019-03-30T01:35:32.250Z,18.10
2019-03-30T01:36:32.134Z,17.90
2019-03-30T01:37:32.035Z,17.80
2019-03-30T01:38:32.035Z,18.00
2019-03-30T01:39:31.838Z,17.70
2019-03-30T01:40:31.751Z,17.50
2019-03-30T01:41:31.636Z,17.50
2019-03-30T01:42:31.538Z,17.00
2019-03-30T01:43:31.438Z,17.20
2019-03-30T01:44:31.336Z,16.90
2019-03-30T01:45:31.359Z,17.30
2019-03-30T01:46:31.140Z,16.80
2019-03-30T01:47:31.039Z,16.90
2019-03-30T01:48:30.939Z,17.60
2019-03-30T01:49:30.840Z,16.40
2019-03-30T01:50:30.758Z,18.10
2019-03-30T01:51:30.646Z,17.60
2019-03-30T01:52:30.641Z,17.50
2019-03-30T01:53:30.440Z,17.70
2019-03-30T01:54:30.343Z,16.60
2019-03-30T01:55:30.261Z,17.30
2019-03-30T01:56:30.143Z,16.90
2019-03-30T01:57:30.044Z,17.80
2019-03-30T01:58:29.945Z,17.60
2019-03-30T01:59:29.952Z,16.60
2019-03-30T02:00:29.763Z,17.30
2019-03-30T02:01:29.645Z,17.50
2019-03-30T02:02:29.546Z,16.60
2019-03-30T02:03:29.448Z,17.50
2019-03-30T02:04:29.428Z,17.70
2019-03-30T02:05:29.263Z,16.50
2019-03-30T02:06:29.251Z,18.90
2019-03-30T02:07:29.050Z,16.50
2019-03-30T02:08:28.950Z,16.70
2019-03-30T02:09:28.852Z,17.80
2019-03-30T02:10:28.770Z,17.20
2019-03-30T02:11:28.652Z,16.30
2019-03-30T02:12:28.554Z,17.00
2019-03-30T02:13:28.551Z,16.40
2019-03-30T02:14:28.351Z,16.90
2019-03-30T02:15:28.268Z,16.10
2019-03-30T02:16:28.155Z,15.80
2019-03-30T02:17:28.053Z,16.30
2019-03-30T02:18:27.953Z,16.70
2019-03-30T02:19:27.853Z,15.80
2019-03-30T02:20:31.087Z,16.10
2019-03-30T02:21:27.657Z,16.60
2019-03-30T02:22:27.554Z,16.60
2019-03-30T02:23:27.454Z,16.30
2019-03-30T02:24:27.358Z,16.60
2019-03-30T02:25:27.270Z,15.80
2019-03-30T02:26:27.181Z,15.90
2019-03-30T02:27:27.156Z,16.60
2019-03-30T02:28:26.955Z,16.50
2019-03-30T02:29:26.854Z,15.60
2019-03-30T02:30:26.777Z,16.60
2019-03-30T02:31:26.662Z,16.00
2019-03-30T02:32:26.564Z,15.80
2019-03-30T02:33:26.456Z,15.30
2019-03-30T02:34:26.457Z,15.50
2019-03-30T02:35:26.601Z,15.40
2019-03-30T02:36:26.156Z,15.50
2019-03-30T02:37:26.064Z,15.10
2019-03-30T02:38:25.979Z,15.40
2019-03-30T02:39:25.857Z,16.20
2019-03-30T02:40:25.793Z,16.20
2019-03-30T02:41:25.656Z,16.70
2019-03-30T02:42:25.559Z,15.90
2019-03-30T02:43:25.459Z,16.20
2019-03-30T02:44:25.358Z,16.60
2019-03-30T02:45:25.272Z,17.30
2019-03-30T02:46:25.157Z,17.40
2019-03-30T02:47:25.058Z,16.70
2019-03-30T02:48:24.963Z,16.90
2019-03-30T02:49:24.863Z,17.00
2019-03-30T02:50:24.775Z,17.40
2019-03-30T02:51:24.656Z,17.90
2019-03-30T02:52:24.556Z,18.10
2019-03-30T02:53:24.457Z,18.20
2019-03-30T02:54:24.364Z,18.30
2019-03-30T02:55:24.274Z,17.80
2019-03-30T02:56:24.159Z,18.70
2019-03-30T02:57:24.156Z,19.50
2019-03-30T02:58:23.957Z,19.90
2019-03-30T02:59:23.853Z,17.90
2019-03-30T03:00:23.783Z,19.60
2019-03-30T03:01:23.658Z,19.30
2019-03-30T03:02:23.552Z,19.60
2019-03-30T03:03:23.456Z,19.00
2019-03-30T03:04:23.357Z,18.10
2019-03-30T03:05:23.261Z,18.30
2019-03-30T03:06:23.172Z,18.10
2019-03-30T03:07:23.060Z,18.50
2019-03-30T03:08:22.957Z,18.70
2019-03-30T03:09:22.864Z,19.00
2019-03-30T03:10:22.761Z,19.40
2019-03-30T03:11:22.708Z,18.80
2019-03-30T03:12:22.557Z,17.90
2019-03-30T03:13:22.517Z,17.40
2019-03-30T03:14:22.353Z,18.50
2019-03-30T03:15:22.259Z,16.70
2019-03-30T03:16:22.174Z,19.40
2019-03-30T03:17:22.053Z,19.40
2019-03-30T03:18:21.956Z,19.60
2019-03-30T03:19:21.855Z,19.70
2019-03-30T03:20:21.760Z,19.50
2019-03-30T03:21:21.673Z,20.00
2019-03-30T03:22:21.554Z,20.40
2019-03-30T03:23:21.456Z,20.10
2019-03-30T03:24:21.372Z,19.40
2019-03-30T03:25:21.258Z,20.40
2019-03-30T03:26:21.177Z,19.80
2019-03-30T03:27:21.059Z,20.30
2019-03-30T03:28:20.977Z,21.10
2019-03-30T03:29:20.859Z,21.20
2019-03-30T03:30:20.824Z,21.30
2019-03-30T03:31:20.674Z,21.50
2019-03-30T03:32:20.559Z,22.30
2019-03-30T03:33:20.460Z,22.10
2019-03-30T03:34:20.384Z,23.40
2019-03-30T03:35:20.260Z,22.60
2019-03-30T03:36:20.176Z,23.80
2019-03-30T03:37:20.062Z,23.80
2019-03-30T03:38:19.962Z,24.20
2019-03-30T03:39:19.863Z,23.40
2019-03-30T03:40:19.761Z,23.20
2019-03-30T03:41:19.676Z,23.60
2019-03-30T03:42:19.562Z,24.70
2019-03-30T03:43:19.462Z,24.60
2019-03-30T03:44:19.383Z,24.70
2019-03-30T03:45:19.265Z,24.00
2019-03-30T03:46:19.182Z,24.00
2019-03-30T03:47:19.086Z,24.10
2019-03-30T03:48:18.969Z,24.60
2019-03-30T03:49:18.862Z,24.00
2019-03-30T03:50:18.763Z,24.00
2019-03-30T03:51:26.062Z,24.40
2019-03-30T03:52:18.577Z,24.20
2019-03-30T03:53:18.468Z,25.10
2019-03-30T03:54:18.368Z,25.10
2019-03-30T03:55:18.292Z,24.60
2019-03-30T03:56:18.187Z,24.60
2019-03-30T03:57:18.065Z,24.60
2019-03-30T03:58:17.968Z,25.00
2019-03-30T03:59:17.867Z,24.30
2019-03-30T04:00:17.767Z,24.90
2019-03-30T04:01:17.684Z,25.20
2019-03-30T04:02:17.574Z,26.00
2019-03-30T04:03:17.485Z,25.90
2019-03-30T04:04:17.472Z,25.40
2019-03-30T04:05:17.269Z,26.00
2019-03-30T04:06:17.208Z,27.30
2019-03-30T04:07:17.069Z,26.70
2019-03-30T04:08:16.970Z,26.30
2019-03-30T04:09:16.868Z,26.30
2019-03-30T04:10:16.768Z,27.00
2019-03-30T04:11:16.788Z,25.40
2019-03-30T04:12:16.568Z,25.50
2019-03-30T04:13:16.482Z,24.70
2019-03-30T04:14:16.368Z,23.80
2019-03-30T04:15:16.300Z,24.50
2019-03-30T04:16:16.189Z,23.40
2019-03-30T04:17:16.071Z,24.00
2019-03-30T04:18:16.075Z,22.30
2019-03-30T04:19:15.869Z,24.20
2019-03-30T04:20:15.769Z,23.20
2019-03-30T04:21:15.690Z,22.20
2019-03-30T04:22:15.576Z,22.20
2019-03-30T04:23:15.478Z,24.50
2019-03-30T04:24:15.369Z,25.00
2019-03-30T04:25:15.377Z,23.70
2019-03-30T04:26:15.185Z,24.20
2019-03-30T04:27:15.068Z,22.90
2019-03-30T04:28:14.969Z,24.00
2019-03-30T04:29:14.868Z,24.00
2019-03-30T04:30:14.766Z,22.90
2019-03-30T04:31:14.686Z,24.40
2019-03-30T04:32:14.670Z,23.90
2019-03-30T04:33:14.465Z,25.00
2019-03-30T04:34:14.365Z,24.10
2019-03-30T04:35:14.272Z,24.20
2019-03-30T04:36:14.181Z,24.00
2019-03-30T04:37:14.103Z,23.60
2019-03-30T04:38:14.468Z,24.00
2019-03-30T04:39:13.969Z,23.90
2019-03-30T04:40:13.762Z,25.30
2019-03-30T04:41:13.677Z,25.10
2019-03-30T04:42:13.566Z,25.00
2019-03-30T04:43:13.471Z,26.20
2019-03-30T04:44:13.369Z,25.60
2019-03-30T04:45:13.261Z,29.80
2019-03-30T04:46:13.295Z,27.80
2019-03-30T04:47:13.076Z,25.40
2019-03-30T04:48:12.958Z,25.80
2019-03-30T04:49:12.857Z,26.60
2019-03-30T04:50:12.769Z,28.90
2019-03-30T04:51:12.659Z,25.90
2019-03-30T04:52:12.576Z,28.60
2019-03-30T04:53:12.559Z,25.50
2019-03-30T04:54:12.355Z,27.30
2019-03-30T04:55:12.255Z,30.20
2019-03-30T04:56:12.156Z,22.90
2019-03-30T04:57:12.071Z,25.70
2019-03-30T04:58:11.954Z,30.90
2019-03-30T04:59:11.854Z,24.50
2019-03-30T05:00:11.857Z,26.70
2019-03-30T05:01:11.654Z,26.00
2019-03-30T05:02:11.570Z,27.10
2019-03-30T05:03:11.453Z,29.50
2019-03-30T05:04:11.349Z,29.30
2019-03-30T05:05:11.248Z,27.30
2019-03-30T05:06:11.152Z,26.70
2019-03-30T05:07:11.168Z,27.80
2019-03-30T05:08:10.947Z,27.40
2019-03-30T05:09:10.846Z,28.10
2019-03-30T05:10:10.746Z,26.20
2019-03-30T05:11:10.644Z,25.10
2019-03-30T05:12:10.570Z,24.00
2019-03-30T05:13:10.550Z,24.60
2019-03-30T05:14:10.341Z,23.80
2019-03-30T05:15:10.322Z,25.30
2019-03-30T05:16:10.141Z,25.80
2019-03-30T05:17:10.056Z,23.50
2019-03-30T05:18:09.940Z,24.70
2019-03-30T05:19:09.839Z,21.00
2019-03-30T05:20:09.738Z,20.10
2019-03-30T05:21:09.743Z,20.20
2019-03-30T05:22:12.839Z,21.00
2019-03-30T05:23:09.436Z,20.00
2019-03-30T05:24:09.338Z,22.10
2019-03-30T05:25:09.237Z,22.70
2019-03-30T05:26:09.135Z,23.00
2019-03-30T05:27:09.056Z,22.20
2019-03-30T05:28:08.935Z,23.30
2019-03-30T05:29:08.834Z,21.10
2019-03-30T05:30:08.736Z,22.00
2019-03-30T05:31:08.634Z,20.80
2019-03-30T05:32:08.550Z,21.00
2019-03-30T05:33:08.440Z,21.10
2019-03-30T05:34:08.332Z,20.00
2019-03-30T05:35:08.235Z,22.20
2019-03-30T05:36:08.136Z,21.50
2019-03-30T05:37:08.050Z,20.90
2019-03-30T05:38:07.933Z,21.20
2019-03-30T05:39:07.839Z,20.40
2019-03-30T05:40:07.732Z,19.50
2019-03-30T05:41:07.642Z,21.50
2019-03-30T05:42:07.547Z,20.30
2019-03-30T05:43:07.435Z,19.90
2019-03-30T05:44:07.346Z,19.90
2019-03-30T05:45:07.229Z,19.10
2019-03-30T05:46:07.133Z,19.50
2019-03-30T05:47:07.046Z,18.80
2019-03-30T05:48:06.932Z,19.20
2019-03-30T05:49:06.831Z,18.00
2019-03-30T05:50:06.744Z,18.10
2019-03-30T05:51:06.633Z,18.30
2019-03-30T05:52:06.551Z,18.20
2019-03-30T05:53:06.434Z,17.40
2019-03-30T05:54:06.334Z,18.20
2019-03-30T05:55:06.238Z,17.50
2019-03-30T05:56:06.231Z,17.90
2019-03-30T05:57:06.054Z,17.10
2019-03-30T05:58:05.939Z,18.30
2019-03-30T05:59:05.842Z,17.90
2019-03-30T06:00:05.759Z,17.10
2019-03-30T06:01:05.647Z,17.80
2019-03-30T06:02:05.563Z,17.80
2019-03-30T06:03:05.452Z,17.20
2019-03-30T06:04:05.351Z,17.30
2019-03-30T06:05:05.259Z,17.30
2019-03-30T06:06:05.158Z,16.70
2019-03-30T06:07:05.082Z,17.20
2019-03-30T06:08:04.958Z,15.70
2019-03-30T06:09:04.861Z,15.80
2019-03-30T06:10:04.764Z,16.10
2019-03-30T06:11:04.667Z,16.60
2019-03-30T06:12:04.585Z,17.10
2019-03-30T06:13:04.469Z,17.30
2019-03-30T06:14:04.373Z,18.60
2019-03-30T06:15:04.277Z,17.80
2019-03-30T06:16:04.178Z,17.10
2019-03-30T06:17:04.099Z,18.20
2019-03-30T06:18:03.985Z,17.60
2019-03-30T06:19:03.888Z,17.30
2019-03-30T06:20:03.792Z,18.60
2019-03-30T06:21:03.694Z,17.90
2019-03-30T06:22:03.619Z,18.20
2019-03-30T06:23:03.503Z,18.50
2019-03-30T06:24:03.406Z,19.30
2019-03-30T06:25:03.311Z,20.10
2019-03-30T06:26:03.217Z,20.30
2019-03-30T06:27:03.135Z,19.40
2019-03-30T06:28:03.019Z,18.80
2019-03-30T06:29:02.925Z,19.20
2019-03-30T06:30:02.827Z,18.70
2019-03-30T06:31:02.732Z,19.50
2019-03-30T06:32:02.651Z,18.90
2019-03-30T06:33:02.538Z,19.90
2019-03-30T06:34:02.449Z,19.20
2019-03-30T06:35:02.353Z,18.60
2019-03-30T06:36:02.254Z,18.30
2019-03-30T06:37:02.157Z,17.90
2019-03-30T06:38:02.075Z,19.00
2019-03-30T06:39:01.966Z,18.60
2019-03-30T06:40:01.870Z,17.30
2019-03-30T06:41:01.777Z,17.80
2019-03-30T06:42:01.680Z,18.10
2019-03-30T06:43:01.601Z,18.80
2019-03-30T06:44:01.485Z,17.40
2019-03-30T06:45:01.394Z,19.30
2019-03-30T06:46:01.299Z,17.40
2019-03-30T06:47:01.202Z,18.80
2019-03-30T06:48:01.124Z,18.40
2019-03-30T06:49:01.016Z,18.50
2019-03-30T06:50:00.915Z,18.10
2019-03-30T06:51:00.838Z,18.90
2019-03-30T06:52:00.729Z,17.90
2019-03-30T06:53:00.650Z,18.40
2019-03-30T06:54:00.536Z,18.20
2019-03-30T06:55:00.493Z,17.70
2019-03-30T06:56:00.349Z,17.30
2019-03-30T06:57:00.251Z,17.60
2019-03-30T06:58:00.173Z,16.40
2019-03-30T06:59:00.168Z,17.10
2019-03-30T06:59:59.967Z,17.40
2019-03-30T07:00:59.875Z,16.70
2019-03-30T07:01:59.777Z,16.00
2019-03-30T07:02:59.703Z,16.60
2019-03-30T07:03:59.589Z,17.20
2019-03-30T07:04:59.492Z,16.50
2019-03-30T07:05:59.505Z,17.00
2019-03-30T07:06:59.303Z,17.20
2019-03-30T07:07:59.225Z,15.80
2019-03-30T07:08:59.118Z,16.70
2019-03-30T07:09:59.020Z,16.70
2019-03-30T07:10:58.925Z,17.00
2019-03-30T07:11:58.831Z,17.10
2019-03-30T07:12:58.863Z,16.80
2019-03-30T07:13:58.645Z,18.20
2019-03-30T07:14:58.549Z,17.10
2019-03-30T07:15:58.456Z,16.90
2019-03-30T07:17:01.654Z,16.90
2019-03-30T07:17:58.283Z,17.40
2019-03-30T07:18:58.174Z,17.10
2019-03-30T07:19:58.185Z,17.30
2019-03-30T07:20:57.987Z,16.70
2019-03-30T07:21:57.892Z,17.40
2019-03-30T07:23:11.135Z,16.10
2019-03-30T07:23:57.705Z,16.60
2019-03-30T07:24:57.611Z,16.20
2019-03-30T07:25:57.521Z,16.20
2019-03-30T07:26:57.561Z,16.30
2019-03-30T07:27:57.349Z,20.40
2019-03-30T07:28:57.242Z,15.80
2019-03-30T07:29:57.148Z,16.90
2019-03-30T07:30:57.065Z,16.10
2019-03-30T07:31:56.963Z,16.60
2019-03-30T07:32:56.889Z,16.50
2019-03-30T07:33:56.886Z,15.40
2019-03-30T07:34:56.686Z,15.50
2019-03-30T07:35:56.600Z,16.70
2019-03-30T07:36:56.498Z,16.20
2019-03-30T07:37:56.424Z,16.50
2019-03-30T07:38:56.319Z,16.40
2019-03-30T07:39:56.226Z,16.10
2019-03-30T07:40:56.250Z,16.50
2019-03-30T07:41:56.040Z,16.30
2019-03-30T07:42:55.966Z,15.20
2019-03-30T07:43:55.857Z,15.70
2019-03-30T07:44:55.763Z,16.00
2019-03-30T07:45:55.673Z,16.40
2019-03-30T07:46:55.580Z,16.80
2019-03-30T07:47:55.612Z,16.10
2019-03-30T07:48:55.400Z,16.00
2019-03-30T07:49:55.310Z,16.50
2019-03-30T07:50:55.213Z,15.60
2019-03-30T07:51:55.123Z,15.10
2019-03-30T07:52:55.048Z,16.10
2019-03-30T07:53:54.940Z,16.50
2019-03-30T07:54:54.954Z,15.90
2019-03-30T07:56:07.765Z,17.30
2019-03-30T07:57:05.384Z,16.60
2019-03-30T07:57:54.606Z,15.50
2019-03-30T07:58:54.503Z,16.80
2019-03-30T07:59:54.395Z,16.90
2019-03-30T08:00:54.304Z,16.70
2019-03-30T08:01:54.317Z,16.70
2019-03-30T08:02:54.126Z,15.30
2019-03-30T08:03:54.052Z,16.00
2019-03-30T08:04:53.941Z,17.30
2019-03-30T08:05:54.487Z,16.40
2019-03-30T08:06:53.759Z,16.10
2019-03-30T08:07:53.669Z,16.80
2019-03-30T08:08:53.700Z,16.30
2019-03-30T08:09:53.488Z,16.60
2019-03-30T08:10:53.400Z,15.70
2019-03-30T08:11:53.310Z,16.90
2019-03-30T08:12:53.216Z,16.70
2019-03-30T08:13:53.142Z,16.90
2019-03-30T08:14:53.134Z,16.30
2019-03-30T08:15:52.946Z,16.20
2019-03-30T08:16:52.855Z,17.40
2019-03-30T08:17:52.766Z,17.00
2019-03-30T08:18:52.693Z,16.50
2019-03-30T08:19:52.623Z,16.00
2019-03-30T08:20:52.496Z,16.70
2019-03-30T08:21:52.406Z,16.30
2019-03-30T08:22:52.317Z,15.80
2019-03-30T08:23:52.245Z,16.80
2019-03-30T08:24:52.139Z,15.70
2019-03-30T08:25:52.046Z,15.90
2019-03-30T08:26:51.957Z,15.90
2019-03-30T08:27:51.866Z,16.10
2019-03-30T08:28:51.797Z,15.90
2019-03-30T08:29:51.686Z,15.70
2019-03-30T08:30:51.597Z,15.70
2019-03-30T08:31:51.511Z,15.70
2019-03-30T08:32:51.420Z,16.10
2019-03-30T08:33:51.344Z,15.80
2019-03-30T08:34:51.240Z,15.80
2019-03-30T08:35:51.149Z,16.50
2019-03-30T08:36:51.062Z,16.40
2019-03-30T08:37:50.974Z,16.00
2019-03-30T08:38:50.902Z,16.20
2019-03-30T08:39:50.794Z,15.70
2019-03-30T08:40:50.709Z,16.40
2019-03-30T08:41:50.635Z,15.90
2019-03-30T08:42:50.529Z,15.90
2019-03-30T08:43:50.470Z,16.10
2019-03-30T08:44:50.353Z,15.00
2019-03-30T08:45:50.265Z,14.80
2019-03-30T08:46:50.177Z,16.20
2019-03-30T08:47:50.087Z,16.50
2019-03-30T08:48:50.001Z,16.40
2019-03-30T08:49:49.928Z,15.10
2019-03-30T08:50:49.825Z,14.70
2019-03-30T08:51:49.782Z,14.30
2019-03-30T08:52:49.646Z,15.10
2019-03-30T08:53:54.788Z,15.30
2019-03-30T08:54:49.490Z,15.20
2019-03-30T08:55:49.389Z,15.50
2019-03-30T08:56:49.304Z,15.10
2019-03-30T08:57:49.214Z,15.40
2019-03-30T08:58:49.128Z,15.40
2019-03-30T08:59:49.055Z,15.20
2019-03-30T09:00:48.956Z,14.80
2019-03-30T09:01:48.865Z,15.20
2019-03-30T09:02:48.781Z,15.60
2019-03-30T09:03:48.695Z,15.40
2019-03-30T09:04:48.624Z,15.80
2019-03-30T09:05:48.521Z,15.30
2019-03-30T09:06:48.434Z,15.70
2019-03-30T09:07:48.347Z,15.70
2019-03-30T09:08:48.260Z,15.30
2019-03-30T09:09:48.192Z,15.00
2019-03-30T09:10:48.088Z,15.40
2019-03-30T09:11:48.002Z,15.30
2019-03-30T09:12:47.914Z,15.10
2019-03-30T09:13:47.830Z,16.20
2019-03-30T09:14:47.757Z,15.20
2019-03-30T09:15:47.654Z,15.00
2019-03-30T09:16:47.570Z,16.30
2019-03-30T09:17:47.486Z,15.60
2019-03-30T09:18:47.402Z,15.40
2019-03-30T09:19:47.328Z,15.90
2019-03-30T09:20:47.298Z,16.10
2019-03-30T09:21:47.137Z,16.30
2019-03-30T09:22:47.054Z,15.70
2019-03-30T09:23:47.035Z,15.30
2019-03-30T09:24:46.900Z,15.70
2019-03-30T09:25:46.793Z,15.10
2019-03-30T09:26:46.709Z,14.90
2019-03-30T09:27:46.625Z,14.80
2019-03-30T09:28:46.537Z,15.40
2019-03-30T09:29:46.467Z,15.60
2019-03-30T09:30:46.363Z,15.20
2019-03-30T09:31:46.385Z,14.40
2019-03-30T09:32:46.194Z,15.10
2019-03-30T09:33:46.103Z,14.70
2019-03-30T09:34:46.035Z,14.70
2019-03-30T09:35:45.984Z,14.10
2019-03-30T09:36:45.978Z,15.30
2019-03-30T09:37:45.763Z,15.80
2019-03-30T09:38:45.675Z,15.00
2019-03-30T09:39:45.606Z,15.10
2019-03-30T09:40:45.506Z,14.80
2019-03-30T09:41:45.418Z,14.60
2019-03-30T09:42:45.337Z,14.10
2019-03-30T09:43:45.248Z,13.70
2019-03-30T09:44:45.178Z,13.80
2019-03-30T09:45:45.184Z,13.90
2019-03-30T09:46:44.991Z,13.60
2019-03-30T09:47:44.908Z,14.60
2019-03-30T09:48:44.824Z,14.10
2019-03-30T09:49:44.758Z,13.30
2019-03-30T09:50:44.651Z,13.90
2019-03-30T09:51:44.563Z,14.30
2019-03-30T09:52:44.580Z,13.50
2019-03-30T09:53:44.393Z,13.70
2019-03-30T09:54:44.324Z,13.90
2019-03-30T09:55:44.224Z,14.30
2019-03-30T09:56:44.140Z,13.80
2019-03-30T09:57:44.054Z,13.90
2019-03-30T09:58:43.969Z,13.90
2019-03-30T09:59:44.000Z,13.90
2019-03-30T10:00:43.796Z,14.70
2019-03-30T10:01:43.712Z,13.30
2019-03-30T10:02:43.630Z,13.80
2019-03-30T10:03:43.543Z,12.20
2019-03-30T10:04:43.475Z,12.20
2019-03-30T10:05:43.371Z,11.50
2019-03-30T10:06:43.587Z,12.10
2019-03-30T10:07:43.264Z,11.90
2019-03-30T10:08:43.118Z,12.40
2019-03-30T10:09:43.091Z,12.90
2019-03-30T10:10:42.948Z,12.00
2019-03-30T10:11:42.865Z,11.80
2019-03-30T10:12:42.778Z,12.40
2019-03-30T10:13:42.805Z,13.40
2019-03-30T10:14:42.614Z,13.10
2019-03-30T10:15:42.544Z,11.80
2019-03-30T10:16:42.444Z,12.50
2019-03-30T10:17:42.358Z,12.10
2019-03-30T10:18:42.274Z,12.40
2019-03-30T10:19:42.192Z,12.40
2019-03-30T10:20:42.228Z,12.60
2019-03-30T10:21:42.026Z,12.60
2019-03-30T10:22:42.337Z,12.60
2019-03-30T10:23:41.856Z,12.30
2019-03-30T10:24:41.774Z,12.60
2019-03-30T10:25:41.704Z,12.50
2019-03-30T10:26:41.602Z,12.50
2019-03-30T10:27:41.628Z,13.20
2019-03-30T10:28:41.434Z,12.60
2019-03-30T10:29:41.353Z,12.70
2019-03-30T10:30:41.285Z,12.90
2019-03-30T10:31:41.182Z,12.80
2019-03-30T10:32:41.098Z,13.30
2019-03-30T10:33:41.013Z,13.10
2019-03-30T10:34:41.038Z,13.00
2019-03-30T10:35:40.863Z,12.70
2019-03-30T10:36:40.759Z,13.40
2019-03-30T10:37:40.677Z,12.60
2019-03-30T10:38:40.593Z,13.00
2019-03-30T10:39:40.509Z,13.00
2019-03-30T10:40:40.444Z,13.10
2019-03-30T10:41:40.446Z,13.00
2019-03-30T10:42:40.257Z,13.20
2019-03-30T10:43:40.173Z,13.80
2019-03-30T10:44:40.089Z,13.50
2019-03-30T10:45:40.030Z,14.00
2019-03-30T10:46:39.924Z,13.40
2019-03-30T10:47:39.838Z,13.00
2019-03-30T10:48:39.865Z,12.90
2019-03-30T10:49:39.674Z,13.20
2019-03-30T10:50:39.606Z,12.80
2019-03-30T10:51:39.504Z,12.30
2019-03-30T10:52:39.422Z,13.50
2019-03-30T10:53:39.337Z,13.50
2019-03-30T10:54:52.147Z,14.10
2019-03-30T10:55:39.193Z,13.30
2019-03-30T10:56:39.092Z,13.80
2019-03-30T10:57:39.006Z,13.10
2019-03-30T10:58:38.924Z,13.10
2019-03-30T10:59:38.931Z,12.20
2019-03-30T11:00:38.781Z,13.90
2019-03-30T11:01:39.197Z,13.40
2019-03-30T11:02:38.595Z,13.60
2019-03-30T11:03:38.539Z,13.30
2019-03-30T11:04:38.425Z,13.80
2019-03-30T11:05:38.359Z,14.50
2019-03-30T11:06:38.260Z,13.30
2019-03-30T11:07:38.181Z,13.90
2019-03-30T11:08:38.091Z,14.40
2019-03-30T11:09:38.006Z,13.70
2019-03-30T11:10:37.940Z,13.10
2019-03-30T11:11:37.839Z,13.80
2019-03-30T11:12:37.758Z,14.50
2019-03-30T11:13:37.672Z,14.10
2019-03-30T11:14:37.595Z,14.20
2019-03-30T11:15:37.529Z,15.10
2019-03-30T11:16:37.420Z,14.30
2019-03-30T11:17:37.341Z,13.50
2019-03-30T11:18:37.254Z,14.50
2019-03-30T11:19:37.224Z,15.10
2019-03-30T11:20:37.102Z,14.20
2019-03-30T11:21:37.004Z,13.70
2019-03-30T11:22:36.918Z,14.50
2019-03-30T11:23:36.840Z,14.60
2019-03-30T11:24:36.755Z,15.20
2019-03-30T11:25:36.683Z,14.10
2019-03-30T11:26:36.587Z,13.90
2019-03-30T11:27:36.503Z,14.60
2019-03-30T11:28:36.419Z,13.80
2019-03-30T11:29:36.335Z,14.10
2019-03-30T11:30:36.272Z,15.90
2019-03-30T11:31:36.174Z,14.90
2019-03-30T11:32:36.085Z,14.60
2019-03-30T11:33:36.003Z,15.30
2019-03-30T11:34:35.919Z,13.80
2019-03-30T11:35:35.855Z,13.60
2019-03-30T11:36:35.752Z,14.40
2019-03-30T11:37:35.674Z,14.70
2019-03-30T11:38:35.589Z,14.30
2019-03-30T11:39:35.504Z,14.60
2019-03-30T11:40:35.439Z,14.90
2019-03-30T11:41:35.341Z,15.70
2019-03-30T11:42:35.255Z,15.70
2019-03-30T11:43:35.173Z,16.00
2019-03-30T11:44:35.092Z,15.10
2019-03-30T11:45:35.024Z,14.80
2019-03-30T11:46:34.929Z,14.80
2019-03-30T11:47:34.840Z,13.20
2019-03-30T11:48:37.550Z,13.20
2019-03-30T11:49:34.678Z,11.70
2019-03-30T11:50:34.594Z,12.90
2019-03-30T11:51:34.527Z,13.40
2019-03-30T11:52:34.431Z,14.10
2019-03-30T11:53:34.344Z,13.20
2019-03-30T11:54:34.264Z,13.20
2019-03-30T11:55:34.202Z,13.20
2019-03-30T11:56:34.115Z,13.20
2019-03-30T11:57:34.017Z,13.00
2019-03-30T11:58:34.035Z,12.80
2019-03-30T11:59:33.855Z,13.40
2019-03-30T12:00:33.772Z,12.70
2019-03-30T12:01:33.708Z,13.00
2019-03-30T12:02:33.611Z,13.70
2019-03-30T12:03:33.527Z,13.60
2019-03-30T12:04:33.443Z,13.20
2019-03-30T12:05:33.361Z,13.20
2019-03-30T12:06:33.301Z,13.60
2019-03-30T12:07:33.200Z,13.20
2019-03-30T12:08:33.131Z,14.00
2019-03-30T12:09:33.035Z,13.10
2019-03-30T12:10:32.954Z,13.60
2019-03-30T12:11:32.889Z,13.50
2019-03-30T12:12:32.787Z,14.40
2019-03-30T12:13:32.710Z,13.50
2019-03-30T12:14:32.624Z,13.70
2019-03-30T12:15:32.551Z,13.50
2019-03-30T12:16:32.478Z,13.40
2019-03-30T12:17:32.382Z,12.60
2019-03-30T12:18:32.302Z,13.70
2019-03-30T12:19:32.321Z,13.40
2019-03-30T12:20:32.134Z,13.20
2019-03-30T12:21:32.070Z,13.50
2019-03-30T12:22:31.973Z,13.20
2019-03-30T12:23:31.890Z,12.70
2019-03-30T12:24:31.807Z,12.80
2019-03-30T12:25:35.997Z,13.90
2019-03-30T12:26:31.662Z,14.20
2019-03-30T12:27:31.897Z,12.80
2019-03-30T12:28:31.481Z,13.90
2019-03-30T12:29:31.402Z,14.60
2019-03-30T12:30:31.318Z,14.80
2019-03-30T12:31:31.264Z,14.70
2019-03-30T12:32:31.153Z,14.70
2019-03-30T12:33:31.174Z,14.40
2019-03-30T12:34:30.992Z,14.30
2019-03-30T12:35:30.916Z,13.60
2019-03-30T12:36:30.842Z,13.50
2019-03-30T12:37:30.743Z,13.20
2019-03-30T12:38:30.660Z,13.50
2019-03-30T12:39:30.580Z,13.40
2019-03-30T12:40:30.601Z,13.30
2019-03-30T12:41:30.431Z,12.10
2019-03-30T12:42:30.332Z,12.70
2019-03-30T12:43:30.254Z,12.50
2019-03-30T12:44:30.168Z,13.00
2019-03-30T12:45:30.084Z,12.10
2019-03-30T12:46:30.021Z,11.80
2019-03-30T12:47:30.039Z,12.40
2019-03-30T12:48:29.838Z,12.00
2019-03-30T12:49:29.759Z,11.70
2019-03-30T12:50:29.675Z,11.00
2019-03-30T12:51:29.610Z,10.60